Time;durP1;ratioP1;P1;durP2;ratioP2;P2;SDS_P1;SDS_P2;PMS_P1;PMS_P2;Temp;Humidity;BMP_temperature;BMP_pressure;BME280_temperature;BME280_humidity;BME280_pressure;Samples;Min_cycle;Max_cycle;Signal;HPM_P1;HPM_P2
2023/12/15 00:00:13;;;;;;;10.68;4.65;;;5.80;99.90;;;;;;5041368;28;20041;-66
2023/12/15 00:02:39;;;;;;;11.13;5.38;;;5.80;99.90;;;;;;5045050;28;20257;-66
2023/12/15 00:05:06;;;;;;;11.95;5.03;;;5.80;99.90;;;;;;5044050;28;20033;-65
2023/12/15 00:07:31;;;;;;;10.85;5.25;;;5.80;99.90;;;;;;5038634;28;20405;-66
2023/12/15 00:09:57;;;;;;;12.07;5.18;;;5.80;99.90;;;;;;5039351;28;20091;-66
2023/12/15 00:12:23;;;;;;;10.18;4.75;;;5.80;99.90;;;;;;5044922;28;20131;-66
2023/12/15 00:14:49;;;;;;;7.93;4.80;;;5.80;99.90;;;;;;5044104;28;20032;-66
2023/12/15 00:17:15;;;;;;;9.18;5.03;;;5.80;99.90;;;;;;5041189;28;20040;-66
2023/12/15 00:19:40;;;;;;;13.15;4.72;;;5.80;99.90;;;;;;5032725;28;20530;-66
2023/12/15 00:22:06;;;;;;;8.55;4.78;;;5.80;99.90;;;;;;5038679;28;20033;-66
2023/12/15 00:24:32;;;;;;;8.38;4.90;;;5.80;99.90;;;;;;5046877;28;20035;-66
2023/12/15 00:26:58;;;;;;;10.05;4.80;;;5.80;99.90;;;;;;5038863;28;20729;-65
2023/12/15 00:29:25;;;;;;;10.27;5.03;;;5.80;99.90;;;;;;5032522;28;20033;-66
2023/12/15 00:31:51;;;;;;;10.50;5.28;;;5.90;99.90;;;;;;5043020;28;20170;-66
2023/12/15 00:34:17;;;;;;;8.35;4.93;;;5.90;99.90;;;;;;5044456;28;20096;-66
2023/12/15 00:36:43;;;;;;;9.77;4.90;;;5.90;99.90;;;;;;5042414;28;20486;-66
2023/12/15 00:39:09;;;;;;;10.55;5.78;;;5.80;99.90;;;;;;5039430;28;20040;-66
2023/12/15 00:41:34;;;;;;;11.45;4.75;;;5.80;99.90;;;;;;5041364;28;20029;-66
2023/12/15 00:44:03;;;;;;;8.60;4.85;;;5.80;99.90;;;;;;5033823;28;20175;-66
2023/12/15 00:46:29;;;;;;;9.45;4.88;;;5.80;99.90;;;;;;5041703;28;20045;-66
2023/12/15 00:48:55;;;;;;;9.52;4.68;;;5.80;99.90;;;;;;5041477;28;20033;-66
2023/12/15 00:51:21;;;;;;;8.82;4.72;;;5.80;99.90;;;;;;5035317;28;20040;-66
2023/12/15 00:53:47;;;;;;;7.53;4.35;;;5.70;99.90;;;;;;5027830;28;20501;-66
2023/12/15 00:56:13;;;;;;;12.52;5.40;;;5.70;99.90;;;;;;5040046;28;20072;-65
2023/12/15 00:58:39;;;;;;;9.07;4.90;;;5.70;99.90;;;;;;5037280;28;20684;-66
2023/12/15 01:01:06;;;;;;;12.23;5.07;;;5.70;99.90;;;;;;5033770;28;20065;-66
2023/12/15 01:03:32;;;;;;;8.48;4.70;;;5.70;99.90;;;;;;5044514;28;20033;-66
2023/12/15 01:05:57;;;;;;;12.00;5.70;;;5.70;99.90;;;;;;5042069;28;20382;-66
2023/12/15 01:08:24;;;;;;;11.15;4.60;;;5.70;99.90;;;;;;5036560;28;20033;-66
2023/12/15 01:10:50;;;;;;;8.70;4.68;;;5.70;99.90;;;;;;5042875;28;20033;-66
2023/12/15 01:13:16;;;;;;;10.82;4.70;;;5.70;99.90;;;;;;5037216;28;20044;-66
2023/12/15 01:15:42;;;;;;;8.70;4.43;;;5.70;99.90;;;;;;5038932;28;20470;-66
2023/12/15 01:18:08;;;;;;;8.93;4.70;;;5.70;99.90;;;;;;5042190;28;20674;-66
2023/12/15 01:20:34;;;;;;;6.78;3.95;;;5.70;99.90;;;;;;5043973;28;20029;-66
2023/12/15 01:23:00;;;;;;;10.70;4.85;;;5.70;99.90;;;;;;5042369;28;20037;-66
2023/12/15 01:25:26;;;;;;;9.27;5.00;;;5.70;99.90;;;;;;5036753;28;20056;-66
2023/12/15 01:27:52;;;;;;;11.45;5.05;;;5.70;99.90;;;;;;5038298;28;20090;-66
2023/12/15 01:30:17;;;;;;;9.98;4.65;;;5.70;99.90;;;;;;5037754;28;20036;-66
2023/12/15 01:32:43;;;;;;;7.68;4.10;;;5.60;99.90;;;;;;5040279;28;20469;-65
2023/12/15 01:35:09;;;;;;;8.55;4.05;;;5.60;99.90;;;;;;5041992;28;20048;-66
2023/12/15 01:37:35;;;;;;;8.02;4.47;;;5.60;99.90;;;;;;5040509;28;20133;-66
2023/12/15 01:40:02;;;;;;;7.90;4.25;;;5.60;99.90;;;;;;5041205;28;20070;-66
2023/12/15 01:42:28;;;;;;;7.80;4.20;;;5.60;99.90;;;;;;5038439;28;20077;-66
2023/12/15 01:44:54;;;;;;;9.05;4.20;;;5.60;99.90;;;;;;5041708;28;20511;-66
2023/12/15 01:47:21;;;;;;;9.98;4.70;;;5.60;99.90;;;;;;5044003;28;20061;-66
2023/12/15 01:49:47;;;;;;;9.57;5.00;;;5.60;99.90;;;;;;5047333;28;20091;-66
2023/12/15 01:52:13;;;;;;;7.75;4.35;;;5.60;99.90;;;;;;5042952;28;20576;-66
2023/12/15 01:54:39;;;;;;;10.60;5.63;;;5.60;99.90;;;;;;5037887;28;20044;-65
2023/12/15 01:57:07;;;;;;;12.98;5.15;;;5.60;99.90;;;;;;5046271;28;20139;-65
2023/12/15 01:59:48;;;;;;;10.95;5.18;;;5.60;99.90;;;;;;5047905;28;20044;-66
2023/12/15 02:02:13;;;;;;;9.85;4.80;;;5.60;99.90;;;;;;5042052;28;20044;-66
2023/12/15 02:04:39;;;;;;;12.25;5.28;;;5.60;99.90;;;;;;5043230;28;20029;-66
2023/12/15 02:07:05;;;;;;;8.80;4.85;;;5.50;99.90;;;;;;5047844;28;20036;-66
2023/12/15 02:09:31;;;;;;;13.18;5.10;;;5.50;99.90;;;;;;5040179;28;20040;-66
2023/12/15 02:11:57;;;;;;;9.38;5.50;;;5.50;99.90;;;;;;5045852;28;20497;-66
2023/12/15 02:14:23;;;;;;;12.88;5.38;;;5.50;99.90;;;;;;5040983;28;20061;-66
2023/12/15 02:16:49;;;;;;;12.80;5.40;;;5.50;99.90;;;;;;5042769;28;20048;-66
2023/12/15 02:19:15;;;;;;;8.52;4.95;;;5.40;99.90;;;;;;5044053;28;20025;-66
2023/12/15 02:21:41;;;;;;;10.68;5.18;;;5.40;99.90;;;;;;5039888;28;20040;-66
2023/12/15 02:24:07;;;;;;;10.73;5.20;;;5.30;99.90;;;;;;5040739;28;20041;-66
2023/12/15 02:26:33;;;;;;;11.38;5.22;;;5.30;99.90;;;;;;5040356;28;20033;-65
2023/12/15 02:28:59;;;;;;;9.35;5.38;;;5.30;99.90;;;;;;5046493;28;20036;-66
2023/12/15 02:31:25;;;;;;;8.35;4.82;;;5.20;99.90;;;;;;5045452;28;20528;-65
2023/12/15 02:33:53;;;;;;;11.30;5.47;;;5.10;99.90;;;;;;5047243;28;20128;-66
2023/12/15 02:36:23;;;;;;;8.40;4.38;;;5.00;99.90;;;;;;5046081;28;20058;-66
2023/12/15 02:38:50;;;;;;;11.10;4.95;;;4.80;99.90;;;;;;5034857;28;20472;-66
2023/12/15 02:41:16;;;;;;;9.38;4.88;;;4.70;99.90;;;;;;5037146;28;20061;-66
2023/12/15 02:43:42;;;;;;;9.55;5.40;;;4.70;99.90;;;;;;5047022;28;20070;-66
2023/12/15 02:46:08;;;;;;;9.65;5.03;;;4.60;99.90;;;;;;5046699;28;20067;-66
2023/12/15 02:48:34;;;;;;;9.50;5.63;;;4.60;99.90;;;;;;5047524;28;20051;-66
2023/12/15 02:51:00;;;;;;;9.82;5.32;;;4.60;99.90;;;;;;5036147;28;20033;-65
2023/12/15 02:53:28;;;;;;;9.80;4.85;;;4.60;99.90;;;;;;5046516;28;20139;-65
2023/12/15 02:55:54;;;;;;;10.88;5.47;;;4.70;99.90;;;;;;5034108;28;20120;-65
2023/12/15 02:58:20;;;;;;;10.38;5.45;;;4.70;99.90;;;;;;5042912;28;20120;-66
2023/12/15 03:00:46;;;;;;;12.48;6.45;;;4.80;99.90;;;;;;5040777;28;20092;-66
2023/12/15 03:03:12;;;;;;;9.18;4.63;;;4.90;99.90;;;;;;5042862;28;20063;-65
2023/12/15 03:05:38;;;;;;;11.50;5.20;;;4.90;99.90;;;;;;5046613;28;20025;-66
2023/12/15 03:08:04;;;;;;;8.93;5.45;;;4.90;99.90;;;;;;5036433;28;20037;-66
2023/12/15 03:10:30;;;;;;;10.50;5.68;;;4.90;99.90;;;;;;5042727;28;20083;-66
2023/12/15 03:12:56;;;;;;;12.80;6.38;;;4.80;99.90;;;;;;5039636;28;20036;-65
2023/12/15 03:15:22;;;;;;;13.07;5.03;;;4.70;99.90;;;;;;5032787;28;20102;-66
2023/12/15 03:17:48;;;;;;;8.90;4.82;;;4.60;99.90;;;;;;5041863;28;20064;-65
2023/12/15 03:20:14;;;;;;;10.13;4.93;;;4.50;99.90;;;;;;5042271;28;20034;-66
2023/12/15 03:22:39;;;;;;;9.60;4.90;;;4.50;99.90;;;;;;5036751;28;20110;-66
2023/12/15 03:25:06;;;;;;;9.45;4.45;;;4.30;99.90;;;;;;5043544;28;20525;-66
2023/12/15 03:27:32;;;;;;;9.20;5.03;;;4.20;99.90;;;;;;5046187;28;20032;-66
2023/12/15 03:29:59;;;;;;;11.38;6.55;;;4.20;99.90;;;;;;5042274;28;20051;-65
2023/12/15 03:32:24;;;;;;;13.10;5.35;;;4.10;99.90;;;;;;5046379;28;20725;-66
2023/12/15 03:34:50;;;;;;;12.35;5.50;;;4.00;99.90;;;;;;5039329;28;20173;-66
2023/12/15 03:37:16;;;;;;;11.80;5.80;;;4.00;99.90;;;;;;5045660;28;20055;-65
2023/12/15 03:39:43;;;;;;;9.70;4.90;;;3.90;99.90;;;;;;5033517;28;20049;-65
2023/12/15 03:42:09;;;;;;;10.95;4.88;;;3.90;99.90;;;;;;5039077;28;20044;-65
2023/12/15 03:44:36;;;;;;;10.55;5.20;;;3.90;99.90;;;;;;5044706;28;20036;-66
2023/12/15 03:47:03;;;;;;;9.82;5.00;;;4.00;99.90;;;;;;5035569;28;20106;-66
2023/12/15 03:49:28;;;;;;;8.95;5.47;;;4.10;99.90;;;;;;5045213;28;20037;-65
2023/12/15 03:51:54;;;;;;;8.02;4.90;;;4.20;99.90;;;;;;5037400;28;20080;-66
2023/12/15 03:54:20;;;;;;;8.85;5.07;;;4.20;99.90;;;;;;5045106;28;20162;-65
2023/12/15 03:56:46;;;;;;;10.52;5.00;;;4.30;99.90;;;;;;5040717;28;20422;-65
2023/12/15 03:59:12;;;;;;;9.50;5.28;;;4.30;99.90;;;;;;5044808;28;20037;-66
2023/12/15 04:01:38;;;;;;;10.90;4.97;;;4.40;99.90;;;;;;5032273;28;20029;-66
2023/12/15 04:04:03;;;;;;;8.70;4.93;;;4.40;99.90;;;;;;5043499;28;20470;-66
2023/12/15 04:06:30;;;;;;;12.60;5.55;;;4.50;99.90;;;;;;5044151;28;20036;-65
2023/12/15 04:08:55;;;;;;;11.65;5.90;;;4.50;99.90;;;;;;5044580;28;20043;-66
2023/12/15 04:11:22;;;;;;;8.77;5.20;;;4.60;99.90;;;;;;5041425;28;20033;-66
2023/12/15 04:13:48;;;;;;;12.07;5.20;;;4.60;99.90;;;;;;5039987;28;20033;-66
2023/12/15 04:16:14;;;;;;;10.82;5.10;;;4.60;99.90;;;;;;5040135;28;20039;-66
2023/12/15 04:18:40;;;;;;;8.65;4.75;;;4.50;99.90;;;;;;5039362;28;20444;-66
2023/12/15 04:21:06;;;;;;;9.57;4.85;;;4.50;99.90;;;;;;5038855;28;20076;-66
2023/12/15 04:23:32;;;;;;;10.68;4.97;;;4.50;99.90;;;;;;5029924;28;20543;-66
2023/12/15 04:25:58;;;;;;;9.13;4.45;;;4.40;99.90;;;;;;5042520;28;20025;-66
2023/12/15 04:28:25;;;;;;;10.05;4.97;;;4.30;99.90;;;;;;5032344;28;20028;-65
2023/12/15 04:30:52;;;;;;;8.68;4.95;;;4.20;99.90;;;;;;5042218;28;20032;-65
2023/12/15 04:33:18;;;;;;;9.95;5.18;;;4.10;99.90;;;;;;5045280;28;20116;-66
2023/12/15 04:35:44;;;;;;;7.85;4.47;;;4.10;99.90;;;;;;5045137;28;20127;-66
2023/12/15 04:38:10;;;;;;;9.07;5.22;;;4.00;99.90;;;;;;5044905;28;20056;-65
2023/12/15 04:40:35;;;;;;;9.00;4.57;;;3.90;99.90;;;;;;5038228;28;20176;-65
2023/12/15 04:43:01;;;;;;;8.27;5.05;;;3.80;99.90;;;;;;5033557;28;20133;-65
2023/12/15 04:45:27;;;;;;;8.27;4.40;;;3.70;99.90;;;;;;5043246;28;20551;-65
2023/12/15 04:47:54;;;;;;;10.38;4.70;;;3.70;99.90;;;;;;5043644;28;20207;-65
2023/12/15 04:50:20;;;;;;;9.35;4.72;;;3.70;99.90;;;;;;5035431;28;20404;-66
2023/12/15 04:52:46;;;;;;;9.13;4.32;;;3.60;99.90;;;;;;5040480;28;20032;-65
2023/12/15 04:55:12;;;;;;;7.43;4.60;;;3.50;99.90;;;;;;5038274;28;20063;-65
2023/12/15 04:57:38;;;;;;;10.52;5.30;;;3.50;99.90;;;;;;5035129;28;20394;-65
2023/12/15 05:00:07;;;;;;;9.75;5.55;;;3.40;99.90;;;;;;5035587;28;20041;-65
2023/12/15 05:02:33;;;;;;;8.70;4.43;;;3.40;99.90;;;;;;5043830;28;20042;-65
2023/12/15 05:04:59;;;;;;;9.50;4.95;;;3.40;99.90;;;;;;5041226;28;20029;-65
2023/12/15 05:07:24;;;;;;;9.38;5.05;;;3.30;99.90;;;;;;5044441;28;20029;-65
2023/12/15 05:09:50;;;;;;;6.85;3.72;;;3.30;99.90;;;;;;5037937;28;20075;-65
2023/12/15 05:12:16;;;;;;;9.02;4.75;;;3.20;99.90;;;;;;5029423;28;20496;-65
2023/12/15 05:14:42;;;;;;;9.23;4.72;;;3.20;99.90;;;;;;5039178;28;20116;-65
2023/12/15 05:17:08;;;;;;;9.05;5.53;;;3.20;99.90;;;;;;5038635;28;20800;-65
2023/12/15 05:19:34;;;;;;;10.20;4.68;;;3.10;99.90;;;;;;5040071;28;20678;-65
2023/12/15 05:22:00;;;;;;;9.38;5.50;;;3.10;99.90;;;;;;5040240;28;20041;-65
2023/12/15 05:24:25;;;;;;;9.65;4.85;;;3.10;99.90;;;;;;5044770;28;20464;-65
2023/12/15 05:26:51;;;;;;;13.25;5.13;;;3.10;99.90;;;;;;5039555;28;20102;-65
2023/12/15 05:29:17;;;;;;;9.68;4.93;;;3.00;99.90;;;;;;5042145;28;20017;-65
2023/12/15 05:31:46;;;;;;;10.40;5.07;;;3.00;99.90;;;;;;5040454;28;20033;-65
2023/12/15 05:34:12;;;;;;;10.43;5.57;;;3.00;99.90;;;;;;5043420;28;20084;-65
2023/12/15 05:36:39;;;;;;;9.85;4.70;;;3.00;99.90;;;;;;5038458;28;20461;-65
2023/12/15 05:39:05;;;;;;;9.70;4.80;;;3.00;99.90;;;;;;5039238;28;20037;-65
2023/12/15 05:41:31;;;;;;;12.32;5.75;;;2.90;99.90;;;;;;5030499;28;20725;-65
2023/12/15 05:43:57;;;;;;;9.80;5.00;;;2.90;99.90;;;;;;5032051;28;20033;-65
2023/12/15 05:46:23;;;;;;;10.38;5.03;;;2.90;99.90;;;;;;5038478;28;20033;-65
2023/12/15 05:48:49;;;;;;;10.10;4.80;;;3.00;99.90;;;;;;5031412;28;20144;-65
2023/12/15 05:51:15;;;;;;;9.13;5.28;;;3.00;99.90;;;;;;5042136;28;20156;-65
2023/12/15 05:53:40;;;;;;;11.32;5.35;;;2.90;99.90;;;;;;5043910;28;20078;-65
2023/12/15 05:56:07;;;;;;;8.70;4.30;;;2.90;99.90;;;;;;5044447;28;20091;-65
2023/12/15 05:58:33;;;;;;;12.82;5.32;;;2.90;99.90;;;;;;5044224;28;20033;-65
2023/12/15 06:00:58;;;;;;;12.30;5.78;;;3.00;99.90;;;;;;5044138;28;20035;-65
2023/12/15 06:03:24;;;;;;;8.80;4.57;;;2.90;99.90;;;;;;5037963;28;20681;-65
2023/12/15 06:05:50;;;;;;;8.18;4.47;;;2.90;99.90;;;;;;5031782;28;20112;-65
2023/12/15 06:08:16;;;;;;;9.48;4.88;;;2.90;99.90;;;;;;5036388;28;20094;-65
2023/12/15 06:10:42;;;;;;;9.02;4.90;;;2.90;99.90;;;;;;5043384;28;20477;-65
2023/12/15 06:13:09;;;;;;;9.43;5.00;;;2.90;99.90;;;;;;5037005;28;20036;-65
2023/12/15 06:15:35;;;;;;;12.15;5.65;;;2.90;99.90;;;;;;5039095;28;20033;-66
2023/12/15 06:18:03;;;;;;;12.85;5.50;;;2.90;99.90;;;;;;5031920;28;20040;-65
2023/12/15 06:20:30;;;;;;;8.95;5.40;;;2.90;99.90;;;;;;5040138;28;20033;-65
2023/12/15 06:22:57;;;;;;;16.48;6.72;;;2.90;99.90;;;;;;5040718;28;20489;-65
2023/12/15 06:25:23;;;;;;;14.88;7.35;;;3.10;99.90;;;;;;5037648;28;20034;-65
2023/12/15 06:27:49;;;;;;;16.45;6.70;;;3.10;99.90;;;;;;5040086;28;20029;-65
2023/12/15 06:30:15;;;;;;;14.98;7.75;;;3.20;99.90;;;;;;5039022;28;20043;-65
2023/12/15 06:32:41;;;;;;;24.40;12.05;;;3.20;99.90;;;;;;5042882;28;20140;-65
2023/12/15 06:35:07;;;;;;;21.17;12.07;;;3.20;99.90;;;;;;5043491;28;20029;-65
2023/12/15 06:37:32;;;;;;;22.55;13.15;;;3.20;99.90;;;;;;5041610;28;20037;-65
2023/12/15 06:39:58;;;;;;;17.77;8.35;;;3.30;99.90;;;;;;5047246;28;20029;-66
2023/12/15 06:42:24;;;;;;;18.83;8.63;;;3.40;99.90;;;;;;5047028;28;20493;-65
2023/12/15 06:44:50;;;;;;;16.52;7.80;;;3.40;99.90;;;;;;5036723;28;20108;-66
2023/12/15 06:47:16;;;;;;;16.83;7.95;;;3.50;99.90;;;;;;5041761;28;20036;-65
2023/12/15 06:49:42;;;;;;;15.35;7.60;;;3.60;99.90;;;;;;5045390;28;20040;-65
2023/12/15 06:52:08;;;;;;;18.30;8.13;;;3.70;99.90;;;;;;5043402;28;20029;-66
2023/12/15 06:54:38;;;;;;;22.30;9.52;;;3.70;99.90;;;;;;5046783;28;20033;-65
2023/12/15 06:57:04;;;;;;;29.67;12.75;;;3.80;99.90;;;;;;5040828;28;20616;-66
2023/12/15 06:59:30;;;;;;;50.15;22.92;;;3.80;99.90;;;;;;5041194;28;20040;-66
2023/12/15 07:01:56;;;;;;;54.38;26.88;;;3.90;99.90;;;;;;5037563;28;20056;-66
2023/12/15 07:04:21;;;;;;;28.13;10.35;;;4.00;99.90;;;;;;5046719;28;20043;-65
2023/12/15 07:06:47;;;;;;;24.33;9.98;;;4.00;99.90;;;;;;5045187;28;20025;-66
2023/12/15 07:09:13;;;;;;;23.52;10.02;;;4.00;99.90;;;;;;5045717;28;20028;-66
2023/12/15 07:11:42;;;;;;;24.52;9.88;;;4.00;99.90;;;;;;5045640;28;20021;-66
2023/12/15 07:14:08;;;;;;;29.83;13.38;;;3.90;99.90;;;;;;5040408;28;20030;-66
2023/12/15 07:16:34;;;;;;;24.23;10.25;;;3.80;99.90;;;;;;5039101;28;20051;-65
2023/12/15 07:19:00;;;;;;;25.27;10.93;;;3.80;99.90;;;;;;5041134;28;20037;-65
2023/12/15 07:21:26;;;;;;;30.65;14.20;;;3.80;99.90;;;;;;5041733;28;20029;-65
2023/12/15 07:23:52;;;;;;;27.42;11.43;;;3.90;99.90;;;;;;5037395;28;20045;-66
2023/12/15 07:26:18;;;;;;;27.27;11.52;;;3.90;99.90;;;;;;5036687;28;20363;-66
2023/12/15 07:28:44;;;;;;;57.58;26.25;;;3.90;99.90;;;;;;5038170;28;20033;-66
2023/12/15 07:31:09;;;;;;;40.38;16.27;;;3.90;99.90;;;;;;5042958;28;20037;-65
2023/12/15 07:33:35;;;;;;;37.28;12.57;;;3.90;99.90;;;;;;5036948;28;20047;-66
2023/12/15 07:36:01;;;;;;;28.13;11.68;;;3.90;99.90;;;;;;5040683;28;20032;-66
2023/12/15 07:38:27;;;;;;;35.05;14.85;;;3.90;99.90;;;;;;5031844;28;20448;-65
2023/12/15 07:40:54;;;;;;;29.95;13.05;;;4.00;99.90;;;;;;5042349;28;20169;-66
2023/12/15 07:43:21;;;;;;;34.92;13.82;;;4.00;99.90;;;;;;5043965;28;20135;-66
2023/12/15 07:45:47;;;;;;;28.27;11.48;;;4.00;99.90;;;;;;5045899;28;20135;-66
2023/12/15 07:48:13;;;;;;;24.73;10.18;;;4.00;99.90;;;;;;5045858;28;20033;-66
2023/12/15 07:50:39;;;;;;;27.33;11.50;;;4.00;99.90;;;;;;5045442;28;20025;-66
2023/12/15 07:53:05;;;;;;;31.25;11.63;;;4.00;99.90;;;;;;5045630;28;20032;-66
2023/12/15 07:55:31;;;;;;;23.38;9.75;;;4.10;99.90;;;;;;5044224;28;20039;-66
2023/12/15 07:57:57;;;;;;;27.27;11.05;;;4.10;99.90;;;;;;5039026;28;20545;-66
2023/12/15 08:00:23;;;;;;;22.77;9.65;;;4.20;99.90;;;;;;5040423;28;20040;-66
2023/12/15 08:02:49;;;;;;;19.50;8.82;;;4.20;99.90;;;;;;5039831;28;20033;-66
2023/12/15 08:05:15;;;;;;;21.95;9.13;;;4.20;99.90;;;;;;5043524;28;20126;-66
2023/12/15 08:07:42;;;;;;;20.50;9.27;;;4.20;99.90;;;;;;5045790;28;20029;-66
2023/12/15 08:10:09;;;;;;;20.67;8.68;;;4.30;99.90;;;;;;5038501;28;20040;-66
2023/12/15 08:12:35;;;;;;;23.35;9.02;;;4.30;99.90;;;;;;5040912;28;20036;-66
2023/12/15 08:15:01;;;;;;;20.23;8.48;;;4.40;99.90;;;;;;5040162;28;20041;-66
2023/12/15 08:17:26;;;;;;;22.50;9.82;;;4.50;99.90;;;;;;5038429;28;20116;-65
2023/12/15 08:19:52;;;;;;;20.23;8.80;;;4.50;99.90;;;;;;5045567;28;20501;-66
2023/12/15 08:22:18;;;;;;;19.67;8.32;;;4.50;99.90;;;;;;5042253;28;20504;-66
2023/12/15 08:24:44;;;;;;;24.98;9.73;;;4.60;99.90;;;;;;5043407;28;20028;-66
2023/12/15 08:27:10;;;;;;;24.60;10.00;;;4.60;99.90;;;;;;5045224;28;20032;-66
2023/12/15 08:29:36;;;;;;;21.15;9.43;;;4.60;99.90;;;;;;5045187;28;20056;-66
2023/12/15 08:32:02;;;;;;;24.30;8.98;;;4.70;99.90;;;;;;5033162;28;20125;-66
2023/12/15 08:34:27;;;;;;;21.70;9.45;;;4.70;99.90;;;;;;5037150;28;20477;-66
2023/12/15 08:36:53;;;;;;;23.35;9.98;;;4.80;99.90;;;;;;5025200;28;20028;-63
2023/12/15 08:39:19;;;;;;;24.63;9.82;;;4.80;99.90;;;;;;5027817;28;20098;-65
2023/12/15 08:41:45;;;;;;;27.48;11.45;;;4.70;99.90;;;;;;5028852;28;20082;-66
2023/12/15 08:44:11;;;;;;;31.75;11.35;;;4.60;99.90;;;;;;5041563;28;20040;-66
2023/12/15 08:46:37;;;;;;;31.33;12.77;;;4.60;99.90;;;;;;5045278;28;20067;-66
2023/12/15 08:49:03;;;;;;;31.85;10.90;;;4.50;99.90;;;;;;5043281;28;20039;-65
2023/12/15 08:51:29;;;;;;;40.03;12.25;;;4.40;99.90;;;;;;5044332;28;20028;-65
2023/12/15 08:53:55;;;;;;;39.55;13.95;;;4.30;99.90;;;;;;5032833;28;20052;-65
2023/12/15 08:56:21;;;;;;;31.13;13.50;;;4.20;99.90;;;;;;5044596;28;20120;-66
2023/12/15 08:58:47;;;;;;;35.65;12.57;;;4.20;99.90;;;;;;5044519;28;20056;-65
2023/12/15 09:01:13;;;;;;;33.65;12.07;;;4.40;99.90;;;;;;5043394;28;20485;-66
2023/12/15 09:03:39;;;;;;;25.42;12.15;;;4.50;99.90;;;;;;5044836;28;20029;-66
2023/12/15 09:06:10;;;;;;;33.75;13.13;;;4.60;99.90;;;;;;5036867;28;20053;-66
2023/12/15 09:08:37;;;;;;;32.85;12.10;;;4.70;99.90;;;;;;5044496;28;20037;-66
2023/12/15 09:11:03;;;;;;;29.05;12.60;;;4.70;99.90;;;;;;5040300;28;20103;-64
2023/12/15 09:13:29;;;;;;;26.08;11.40;;;4.80;99.90;;;;;;5043110;28;20064;-65
2023/12/15 09:15:54;;;;;;;27.23;11.27;;;4.90;99.90;;;;;;5039955;28;20060;-66
2023/12/15 09:18:20;;;;;;;27.67;12.40;;;4.90;99.90;;;;;;5040293;28;20028;-65
2023/12/15 09:20:46;;;;;;;32.05;13.00;;;5.00;99.90;;;;;;5039593;28;20059;-65
2023/12/15 09:23:12;;;;;;;32.17;13.13;;;5.10;99.90;;;;;;5040875;28;20405;-65
2023/12/15 09:25:38;;;;;;;31.10;12.85;;;5.20;99.90;;;;;;5034827;28;20029;-65
2023/12/15 09:28:05;;;;;;;34.28;12.55;;;5.20;99.90;;;;;;5039575;28;20037;-65
2023/12/15 09:30:32;;;;;;;30.02;11.75;;;5.20;99.90;;;;;;5044156;28;20207;-65
2023/12/15 09:32:58;;;;;;;28.27;11.70;;;5.20;99.90;;;;;;5044212;28;20036;-65
2023/12/15 09:35:24;;;;;;;30.90;12.68;;;5.20;99.90;;;;;;5037191;28;20043;-65
2023/12/15 09:37:50;;;;;;;30.02;12.30;;;5.20;99.90;;;;;;5038908;28;20029;-66
2023/12/15 09:40:22;;;;;;;30.27;12.07;;;5.30;99.90;;;;;;5037334;28;20554;-65
2023/12/15 09:42:47;;;;;;;32.95;12.90;;;5.50;99.90;;;;;;5037026;28;20482;-65
2023/12/15 09:45:13;;;;;;;29.27;12.55;;;5.60;99.90;;;;;;5043101;28;20021;-65
2023/12/15 09:47:44;;;;;;;29.65;12.07;;;5.60;99.90;;;;;;5044194;28;20025;-66
2023/12/15 09:50:12;;;;;;;24.70;11.63;;;5.60;99.90;;;;;;5038451;28;20517;-66
2023/12/15 09:52:41;;;;;;;27.92;12.55;;;5.70;99.90;;;;;;5030408;28;20054;-65
2023/12/15 09:55:08;;;;;;;34.95;13.27;;;5.70;99.90;;;;;;5042080;28;20025;-65
2023/12/15 09:57:34;;;;;;;36.05;12.95;;;5.70;99.90;;;;;;5038526;28;20060;-64
2023/12/15 10:00:01;;;;;;;29.15;12.40;;;5.70;99.90;;;;;;5033436;28;20635;-66
2023/12/15 10:02:26;;;;;;;29.77;12.45;;;5.60;99.90;;;;;;5042296;28;20033;-66
2023/12/15 10:04:52;;;;;;;28.58;11.93;;;5.60;99.90;;;;;;5043827;28;20037;-66
2023/12/15 10:07:18;;;;;;;25.80;11.50;;;5.60;99.90;;;;;;5033743;28;20029;-66
2023/12/15 10:09:44;;;;;;;30.70;11.80;;;5.70;99.90;;;;;;5047190;28;20044;-66
2023/12/15 10:12:11;;;;;;;28.35;11.77;;;5.70;99.90;;;;;;5047461;28;20386;-66
2023/12/15 10:14:38;;;;;;;28.23;12.18;;;5.70;99.90;;;;;;5047423;28;20738;-66
2023/12/15 10:17:09;;;;;;;29.98;13.13;;;5.60;99.90;;;;;;5031007;28;20405;-66
2023/12/15 10:19:35;;;;;;;34.92;12.80;;;5.60;99.90;;;;;;5047570;28;20086;-67
2023/12/15 10:22:02;;;;;;;31.50;13.13;;;5.60;99.90;;;;;;5044369;28;20084;-66
2023/12/15 10:24:28;;;;;;;29.75;11.75;;;5.70;99.90;;;;;;5032844;28;20051;-66
2023/12/15 10:26:55;;;;;;;30.45;12.35;;;5.60;99.90;;;;;;5039243;28;20029;-66
2023/12/15 10:29:23;;;;;;;28.38;12.48;;;5.60;99.90;;;;;;5046976;28;20044;-66
2023/12/15 10:31:51;;;;;;;28.42;12.25;;;5.60;99.90;;;;;;5046879;28;20580;-66
2023/12/15 10:34:35;;;;;;;29.25;13.18;;;5.60;99.90;;;;;;5039542;28;20040;-66
2023/12/15 10:37:01;;;;;;;33.17;13.68;;;5.70;99.90;;;;;;5044145;28;20047;-65
2023/12/15 10:39:28;;;;;;;38.63;15.88;;;5.70;99.90;;;;;;5046133;28;20061;-65
2023/12/15 10:41:55;;;;;;;30.50;12.60;;;5.70;99.90;;;;;;5040581;28;20044;-66
2023/12/15 10:44:24;;;;;;;36.33;17.38;;;5.70;99.90;;;;;;5038803;28;20074;-66
2023/12/15 10:46:50;;;;;;;33.58;13.35;;;5.80;99.90;;;;;;5043952;28;20033;-65
2023/12/15 10:49:17;;;;;;;30.13;13.27;;;5.80;99.90;;;;;;5047013;28;20519;-65
2023/12/15 10:51:43;;;;;;;34.33;13.65;;;5.60;99.90;;;;;;5046806;28;20029;-65
2023/12/15 10:54:09;;;;;;;34.13;14.32;;;5.30;99.90;;;;;;5046935;28;20037;-65
2023/12/15 10:56:40;;;;;;;34.28;13.10;;;5.00;99.90;;;;;;5046467;28;20039;-65
2023/12/15 10:59:07;;;;;;;33.53;13.70;;;5.00;99.90;;;;;;5045596;28;20021;-65
2023/12/15 11:01:35;;;;;;;35.88;13.85;;;5.00;99.90;;;;;;5046490;28;20037;-65
2023/12/15 11:04:01;;;;;;;35.70;13.80;;;5.10;99.90;;;;;;5046551;28;20037;-65
2023/12/15 11:06:31;;;;;;;31.52;12.20;;;5.20;99.90;;;;;;5040109;28;20044;-65
2023/12/15 11:09:01;;;;;;;34.92;14.18;;;5.20;99.90;;;;;;5041671;28;20118;-65
2023/12/15 11:11:29;;;;;;;36.03;13.05;;;5.10;99.90;;;;;;5044492;28;20036;-65
2023/12/15 11:14:04;;;;;;;31.83;12.60;;;5.20;99.90;;;;;;5045970;28;20064;-65
2023/12/15 11:16:34;;;;;;;30.55;12.65;;;5.30;99.90;;;;;;5037057;28;20036;-65
2023/12/15 11:19:00;;;;;;;36.65;12.55;;;5.20;99.90;;;;;;5045862;28;20037;-66
2023/12/15 11:21:27;;;;;;;37.50;12.32;;;5.20;99.90;;;;;;5042726;28;20037;-66
2023/12/15 11:24:05;;;;;;;36.60;12.38;;;5.30;99.90;;;;;;5039532;28;20072;-65
2023/12/15 11:26:33;;;;;;;33.30;12.23;;;5.50;99.90;;;;;;5042863;28;20067;-65
2023/12/15 11:29:09;;;;;;;34.22;12.02;;;5.50;99.90;;;;;;5039589;28;20033;-65
2023/12/15 11:31:36;;;;;;;32.17;12.63;;;5.40;99.90;;;;;;5036493;28;20111;-66
2023/12/15 11:34:03;;;;;;;40.28;13.18;;;5.50;99.90;;;;;;5046075;28;20029;-66
2023/12/15 11:36:37;;;;;;;35.85;12.85;;;5.50;99.90;;;;;;5046096;28;20028;-66
2023/12/15 11:39:04;;;;;;;35.58;13.73;;;5.60;99.90;;;;;;5046146;28;20509;-66
2023/12/15 11:41:31;;;;;;;32.60;14.13;;;5.70;99.90;;;;;;5038858;28;20036;-66
2023/12/15 11:44:00;;;;;;;32.00;12.35;;;5.80;99.90;;;;;;5045857;28;20043;-66
2023/12/15 11:46:26;;;;;;;32.13;13.80;;;5.90;99.90;;;;;;5040203;28;20095;-65
2023/12/15 11:48:53;;;;;;;33.38;12.75;;;5.80;99.90;;;;;;5033608;28;20505;-66
2023/12/15 11:51:25;;;;;;;27.08;11.43;;;5.90;99.90;;;;;;5045207;28;20033;-66
2023/12/15 11:53:51;;;;;;;35.67;13.35;;;5.90;99.90;;;;;;5041011;28;20768;-65
2023/12/15 11:56:20;;;;;;;36.65;12.55;;;5.90;99.90;;;;;;5042610;28;20405;-65
2023/12/15 11:58:46;;;;;;;31.15;11.43;;;5.90;99.90;;;;;;5044481;28;20457;-66
2023/12/15 12:01:14;;;;;;;29.42;13.02;;;6.00;99.90;;;;;;5045508;28;20049;-67
2023/12/15 12:03:40;;;;;;;25.52;11.43;;;6.00;99.90;;;;;;5041410;28;20594;-66
2023/12/15 12:06:08;;;;;;;29.27;12.98;;;6.20;99.90;;;;;;5042713;28;20029;-66
2023/12/15 12:08:36;;;;;;;30.80;12.70;;;6.20;99.90;;;;;;5040373;28;20078;-66
2023/12/15 12:11:04;;;;;;;29.05;11.63;;;6.20;99.90;;;;;;5038123;28;20080;-65
2023/12/15 12:13:37;;;;;;;35.95;15.55;;;6.10;99.90;;;;;;5031592;28;20454;-65
2023/12/15 12:16:03;;;;;;;28.30;11.15;;;6.20;99.90;;;;;;5042750;28;20485;-65
2023/12/15 12:18:31;;;;;;;32.38;11.88;;;6.00;99.90;;;;;;5042199;28;20036;-65
2023/12/15 12:21:02;;;;;;;34.83;15.90;;;5.80;99.90;;;;;;5040984;28;20037;-65
2023/12/15 12:23:28;;;;;;;31.70;14.35;;;5.90;99.90;;;;;;5043172;28;20037;-65
2023/12/15 12:25:56;;;;;;;44.13;18.67;;;6.00;99.90;;;;;;5043274;28;20041;-65
2023/12/15 12:28:24;;;;;;;37.60;15.70;;;6.00;99.90;;;;;;5036859;28;20116;-65
2023/12/15 12:30:50;;;;;;;34.10;16.35;;;6.00;99.90;;;;;;5044114;28;20039;-65
2023/12/15 12:33:16;;;;;;;31.92;13.55;;;6.10;99.90;;;;;;5044980;28;20028;-65
2023/12/15 12:35:43;;;;;;;38.33;16.27;;;6.10;99.90;;;;;;5044555;28;20037;-66
2023/12/15 12:38:09;;;;;;;47.15;18.52;;;6.10;99.90;;;;;;5045217;28;20037;-66
2023/12/15 12:40:36;;;;;;;36.67;15.15;;;6.10;99.90;;;;;;5044949;28;20040;-66